Time;durP1;ratioP1;P1;durP2;ratioP2;P2;SDS_P1;SDS_P2;PMS_P1;PMS_P2;Temp;Humidity;BMP_temperature;BMP_pressure;BME280_temperature;BME280_humidity;BME280_pressure;Samples;Min_cycle;Max_cycle;Signal;HPM_P1;HPM_P2
2023/01/24 00:00:05;;;;;;;25.27;16.38;;;;;;;0.79;100.00;104029.78;5110832;28;20460;-80
2023/01/24 00:02:30;;;;;;;24.90;16.38;;;;;;;0.80;100.00;104030.63;5112651;28;20034;-79
2023/01/24 00:04:56;;;;;;;28.13;16.60;;;;;;;0.78;100.00;104035.88;5113276;28;20036;-79
2023/01/24 00:07:21;;;;;;;23.80;15.73;;;;;;;0.79;100.00;104023.63;5113477;28;20480;-79
2023/01/24 00:09:46;;;;;;;25.42;15.80;;;;;;;0.79;100.00;104027.16;5110753;28;20487;-81
2023/01/24 00:12:12;;;;;;;24.80;15.73;;;;;;;0.80;100.00;104028.00;5111306;28;20037;-79
2023/01/24 00:14:37;;;;;;;25.30;15.07;;;;;;;0.80;100.00;104022.78;5109187;28;20134;-78
2023/01/24 00:17:02;;;;;;;25.73;16.25;;;;;;;0.80;100.00;104022.78;5111020;28;20119;-80
2023/01/24 00:19:28;;;;;;;26.55;16.88;;;;;;;0.79;100.00;104024.53;5109158;28;20039;-79
2023/01/24 00:21:53;;;;;;;26.30;16.40;;;;;;;0.78;100.00;104017.53;5111172;28;20039;-80
2023/01/24 00:24:19;;;;;;;24.63;15.65;;;;;;;0.76;100.00;104016.66;5111003;28;20114;-79
2023/01/24 00:26:44;;;;;;;26.17;16.15;;;;;;;0.76;100.00;104013.13;5109371;28;20039;-80
2023/01/24 00:29:09;;;;;;;24.15;15.40;;;;;;;0.74;100.00;104015.75;5109227;28;20452;-80
2023/01/24 00:31:35;;;;;;;27.65;16.52;;;;;;;0.73;100.00;104013.13;5110442;28;20523;-79
2023/01/24 00:34:00;;;;;;;25.98;16.33;;;;;;;0.73;100.00;104019.25;5110033;28;20047;-79
2023/01/24 00:36:26;;;;;;;24.48;15.68;;;;;;;0.74;100.00;104015.75;5109289;28;20027;-80
2023/01/24 00:38:53;;;;;;;27.67;15.27;;;;;;;0.73;100.00;104015.75;5110267;28;20357;-79
2023/01/24 00:41:19;;;;;;;25.85;14.95;;;;;;;0.73;100.00;104007.91;5108923;28;20028;-79
2023/01/24 00:43:44;;;;;;;21.90;15.10;;;;;;;0.72;100.00;104014.00;5109991;28;20036;-79
2023/01/24 00:46:10;;;;;;;25.73;15.93;;;;;;;0.73;100.00;104018.38;5091583;28;20039;-79
2023/01/24 00:48:35;;;;;;;23.70;15.77;;;;;;;0.72;100.00;104008.75;5110360;28;20459;-80
2023/01/24 00:51:01;;;;;;;26.02;15.60;;;;;;;0.69;100.00;104007.03;5109923;28;20024;-79
2023/01/24 00:53:26;;;;;;;21.15;15.10;;;;;;;0.68;100.00;104002.66;5108899;28;20149;-79
2023/01/24 00:55:54;;;;;;;26.48;17.00;;;;;;;0.66;100.00;104002.66;5112024;28;20027;-80
2023/01/24 00:58:20;;;;;;;24.23;16.05;;;;;;;0.67;100.00;104003.50;5111290;28;20328;-79
2023/01/24 01:00:45;;;;;;;26.92;16.70;;;;;;;0.67;100.00;104004.41;5111285;28;20042;-81
2023/01/24 01:03:14;;;;;;;28.85;16.67;;;;;;;0.66;100.00;104002.66;5110140;28;20139;-80
2023/01/24 01:05:40;;;;;;;25.70;16.50;;;;;;;0.66;100.00;103997.41;5110075;28;20027;-79
2023/01/24 01:08:05;;;;;;;24.17;15.52;;;;;;;0.65;100.00;103997.41;5110643;28;20036;-79
2023/01/24 01:10:31;;;;;;;23.75;15.85;;;;;;;0.64;100.00;103999.16;5109673;28;20032;-78
2023/01/24 01:12:56;;;;;;;25.42;16.50;;;;;;;0.65;100.00;103994.78;5113024;28;20063;-79
2023/01/24 01:15:22;;;;;;;27.27;16.83;;;;;;;0.64;100.00;103991.31;5114866;28;20032;-80
2023/01/24 01:17:48;;;;;;;24.30;16.35;;;;;;;0.63;100.00;103988.69;5114156;28;20080;-81
2023/01/24 01:20:13;;;;;;;25.83;17.02;;;;;;;0.63;100.00;103992.16;5114391;28;20460;-80
2023/01/24 01:22:39;;;;;;;24.77;16.50;;;;;;;0.62;100.00;103994.78;5113345;28;20032;-80
2023/01/24 01:25:04;;;;;;;25.52;17.00;;;;;;;0.61;100.00;103991.31;5113339;28;20035;-79
2023/01/24 01:27:30;;;;;;;24.65;16.45;;;;;;;0.61;100.00;103990.41;5114286;28;20092;-79
2023/01/24 01:29:55;;;;;;;25.92;17.70;;;;;;;0.61;100.00;103991.31;5114039;28;20066;-79
2023/01/24 01:32:20;;;;;;;27.83;17.35;;;;;;;0.61;100.00;103996.53;5113646;28;20099;-79
2023/01/24 01:34:46;;;;;;;27.25;16.75;;;;;;;0.60;100.00;103996.50;5113985;28;20479;-78
2023/01/24 01:37:11;;;;;;;26.50;16.52;;;;;;;0.60;100.00;103989.53;5113501;28;20084;-79
2023/01/24 01:39:37;;;;;;;23.67;16.40;;;;;;;0.61;100.00;103996.53;5113887;28;20435;-78
2023/01/24 01:42:02;;;;;;;25.23;16.55;;;;;;;0.60;100.00;103997.41;5112137;28;20036;-79
2023/01/24 01:44:40;;;;;;;26.55;17.05;;;;;;;0.60;100.00;103992.16;5112347;28;20099;-79
2023/01/24 01:47:10;;;;;;;25.02;16.33;;;;;;;0.58;100.00;103993.03;5113873;28;20059;-79
2023/01/24 01:49:39;;;;;;;29.45;16.48;;;;;;;0.57;100.00;103992.16;5114169;27;20035;-79
2023/01/24 01:52:05;;;;;;;23.60;15.68;;;;;;;0.57;100.00;103980.78;5113162;28;20056;-79
2023/01/24 01:54:36;;;;;;;23.60;15.77;;;;;;;0.55;100.00;103991.25;5113788;28;20039;-79
2023/01/24 01:57:15;;;;;;;26.00;16.70;;;;;;;0.53;100.00;103987.78;5113283;28;20145;-80
2023/01/24 02:00:06;;;;;;;27.15;15.55;;;;;;;0.53;100.00;103991.25;5113793;28;20034;-79
2023/01/24 02:02:32;;;;;;;25.02;16.70;;;;;;;0.52;100.00;103986.91;5111253;28;20032;-80
2023/01/24 02:05:07;;;;;;;26.20;15.82;;;;;;;0.50;100.00;103979.91;5113363;27;20445;-79
2023/01/24 02:07:43;;;;;;;22.85;15.00;;;;;;;0.50;100.00;103980.78;5113328;28;20104;-80
2023/01/24 02:10:11;;;;;;;23.85;15.00;;;;;;;0.51;100.00;103984.28;5113132;28;20028;-78
2023/01/24 02:12:43;;;;;;;25.25;15.02;;;;;;;0.49;100.00;103971.19;5113429;28;20471;-80
2023/01/24 02:18:00;;;;;;;24.00;14.50;;;;;;;0.48;100.00;103971.19;5113225;28;20394;-79
2023/01/24 02:20:38;;;;;;;23.67;15.27;;;;;;;0.47;100.00;103974.66;5113563;28;20039;-80
2023/01/24 02:23:09;;;;;;;22.85;15.73;;;;;;;0.47;100.00;103977.28;5112677;28;20061;-78
2023/01/24 02:25:57;;;;;;;24.35;15.48;;;;;;;0.45;100.00;103977.28;5113248;28;20039;-80
2023/01/24 02:28:22;;;;;;;25.23;16.02;;;;;;;0.44;100.00;103983.38;5112930;27;20027;-80
2023/01/24 02:30:47;;;;;;;26.17;15.50;;;;;;;0.43;100.00;103981.63;5111701;28;20084;-79
2023/01/24 02:33:17;;;;;;;24.23;15.60;;;;;;;0.44;100.00;103986.00;5111484;28;20084;-79
2023/01/24 02:35:43;;;;;;;23.67;16.20;;;;;;;0.43;100.00;103984.25;5112906;27;20109;-79
2023/01/24 02:38:26;;;;;;;25.73;15.93;;;;;;;0.43;100.00;103991.25;5112727;28;20056;-79
2023/01/24 02:40:55;;;;;;;25.60;15.80;;;;;;;0.43;100.00;103980.75;5113283;28;20057;-79
2023/01/24 02:43:25;;;;;;;24.50;15.95;;;;;;;0.42;100.00;103974.66;5112566;28;20036;-80
2023/01/24 02:45:51;;;;;;;26.83;15.52;;;;;;;0.43;100.00;103980.75;5113316;28;20448;-80
2023/01/24 02:48:16;;;;;;;22.58;15.88;;;;;;;0.42;100.00;103982.50;5116522;28;20033;-80
2023/01/24 02:53:31;;;;;;;24.00;15.45;;;;;;;0.44;100.00;103983.38;5119519;28;20189;-79
2023/01/24 02:58:50;;;;;;;24.25;15.77;;;;;;;0.43;100.00;103968.53;5117114;28;20047;-79
2023/01/24 03:01:17;;;;;;;26.35;15.90;;;;;;;0.43;100.00;103972.91;5116707;28;20031;-79
2023/01/24 03:03:44;;;;;;;24.77;15.15;;;;;;;0.43;100.00;103973.75;5116229;28;20024;-79
2023/01/24 03:06:10;;;;;;;22.92;15.02;;;;;;;0.43;100.00;103971.13;5116232;28;20046;-79
2023/01/24 03:08:37;;;;;;;26.13;16.30;;;;;;;0.41;100.00;103965.03;5115873;28;20036;-79
2023/01/24 03:11:04;;;;;;;25.27;15.68;;;;;;;0.41;100.00;103970.28;5116205;27;20035;-81
2023/01/24 03:35:23;;;;;;;27.30;16.27;;;;;;;0.35;100.00;103952.78;5115114;28;20062;-79
2023/01/24 03:40:34;;;;;;;25.70;16.45;;;;;;;0.34;100.00;103960.66;5115588;28;20062;-78
2023/01/24 03:43:00;;;;;;;25.25;16.05;;;;;;;0.34;100.00;103961.53;5114850;28;20430;-79
2023/01/24 03:45:29;;;;;;;24.38;17.08;;;;;;;0.34;100.00;103964.16;5116099;28;20107;-81
2023/01/24 03:47:57;;;;;;;28.30;16.52;;;;;;;0.32;100.00;103963.25;5116155;28;20031;-80
2023/01/24 03:53:17;;;;;;;23.15;15.85;;;;;;;0.32;100.00;103965.03;5115756;28;20085;-80
2023/01/24 03:55:43;;;;;;;26.02;16.77;;;;;;;0.31;100.00;103966.78;5114937;28;20031;-79
2023/01/24 03:58:10;;;;;;;26.48;16.95;;;;;;;0.30;100.00;103966.75;5113420;28;20054;-79
2023/01/24 04:00:37;;;;;;;28.50;17.05;;;;;;;0.31;100.00;103968.50;5113884;28;20045;-79
2023/01/24 04:03:02;;;;;;;24.55;16.30;;;;;;;0.31;100.00;103971.13;5114735;28;20028;-80
2023/01/24 04:05:28;;;;;;;24.95;15.98;;;;;;;0.30;100.00;103966.75;5114945;28;20100;-80
2023/01/24 04:07:55;;;;;;;25.30;16.52;;;;;;;0.29;100.00;103971.13;5115344;28;20039;-80
2023/01/24 04:10:21;;;;;;;25.88;17.20;;;;;;;0.30;100.00;103967.63;5115181;28;20090;-79
2023/01/24 04:12:46;;;;;;;24.80;16.60;;;;;;;0.30;100.00;103969.34;5115114;28;20165;-80
2023/01/24 04:15:16;;;;;;;28.92;16.58;;;;;;;0.28;100.00;103964.13;5114927;28;20085;-80
2023/01/24 04:17:42;;;;;;;23.77;16.02;;;;;;;0.29;100.00;103962.41;5115629;28;20031;-80
2023/01/24 04:20:08;;;;;;;27.27;16.20;;;;;;;0.28;100.00;103964.13;5115638;28;20027;-81
2023/01/24 04:22:33;;;;;;;25.73;16.70;;;;;;;0.27;100.00;103961.50;5114934;28;20368;-80
2023/01/24 04:24:58;;;;;;;24.98;16.70;;;;;;;0.28;100.00;103966.75;5114667;28;20039;-79
2023/01/24 04:27:24;;;;;;;26.80;16.52;;;;;;;0.29;100.00;103965.00;5114472;28;20035;-79
2023/01/24 04:29:49;;;;;;;24.63;16.02;;;;;;;0.28;100.00;103968.50;5114868;28;20036;-79
2023/01/24 04:32:14;;;;;;;24.92;16.55;;;;;;;0.27;100.00;103972.88;5113685;28;20471;-79
2023/01/24 04:34:40;;;;;;;29.60;18.20;;;;;;;0.27;100.00;103967.63;5114432;28;20066;-79
2023/01/24 04:37:05;;;;;;;28.63;17.83;;;;;;;0.26;100.00;103967.63;5115302;28;20031;-79
2023/01/24 04:39:31;;;;;;;27.98;18.02;;;;;;;0.23;100.00;103963.25;5113337;28;20115;-79
2023/01/24 04:41:56;;;;;;;28.48;18.20;;;;;;;0.25;100.00;103974.59;5114276;28;20456;-79
2023/01/24 04:44:22;;;;;;;27.42;16.95;;;;;;;0.25;100.00;103971.97;5114448;28;20448;-78
2023/01/24 04:46:47;;;;;;;25.05;16.48;;;;;;;0.26;100.00;103975.47;5113044;28;20118;-79
2023/01/24 04:49:12;;;;;;;28.42;17.10;;;;;;;0.25;100.00;103976.34;5112744;28;20034;-79
2023/01/24 04:51:41;;;;;;;23.75;15.63;;;;;;;0.25;100.00;103977.22;5112732;28;20027;-79
2023/01/24 04:54:08;;;;;;;26.88;16.98;;;;;;;0.23;100.00;103972.84;5112956;28;20032;-78
2023/01/24 04:56:33;;;;;;;27.30;16.67;;;;;;;0.22;100.00;103971.97;5113862;28;20027;-78
2023/01/24 04:58:58;;;;;;;27.83;17.42;;;;;;;0.22;100.00;103979.81;5113621;28;20024;-80
2023/01/24 05:01:24;;;;;;;26.50;17.42;;;;;;;0.22;100.00;103971.97;5114208;28;20070;-79
2023/01/24 05:03:49;;;;;;;27.60;17.73;;;;;;;0.25;100.00;103973.72;5114058;28;20495;-79
2023/01/24 05:06:15;;;;;;;26.73;17.08;;;;;;;0.24;100.00;103978.09;5113980;28;20039;-79
2023/01/24 05:08:40;;;;;;;26.75;17.48;;;;;;;0.25;100.00;103984.19;5113840;28;20023;-79
2023/01/24 05:11:05;;;;;;;27.98;17.55;;;;;;;0.25;100.00;103990.31;5113965;28;20031;-79
2023/01/24 05:13:31;;;;;;;26.48;17.58;;;;;;;0.24;100.00;103980.72;5113742;28;20036;-79
2023/01/24 05:15:56;;;;;;;28.08;17.75;;;;;;;0.25;100.00;103981.59;5113698;28;20031;-79
2023/01/24 05:18:22;;;;;;;26.83;17.65;;;;;;;0.24;100.00;103988.56;5113017;28;20120;-79
2023/01/24 05:20:47;;;;;;;30.70;18.83;;;;;;;0.24;100.00;103988.56;5113423;28;20067;-79
2023/01/24 05:23:12;;;;;;;29.02;18.63;;;;;;;0.23;100.00;103986.81;5113341;28;20036;-79
2023/01/24 05:25:38;;;;;;;26.92;17.00;;;;;;;0.23;100.00;103996.44;5112892;28;20138;-78
2023/01/24 05:28:03;;;;;;;29.77;18.08;;;;;;;0.23;100.00;104004.28;5114570;28;20436;-80
2023/01/24 05:30:29;;;;;;;28.50;17.77;;;;;;;0.23;100.00;104005.16;5113923;28;20100;-79
2023/01/24 05:32:58;;;;;;;28.40;17.30;;;;;;;0.23;100.00;104002.53;5113239;28;20031;-79
2023/01/24 05:35:24;;;;;;;24.00;16.58;;;;;;;0.27;100.00;104003.41;5113514;28;20079;-79
2023/01/24 05:37:50;;;;;;;24.27;16.25;;;;;;;0.26;100.00;104012.16;5113099;28;20506;-78
2023/01/24 05:40:15;;;;;;;26.75;16.58;;;;;;;0.23;100.00;104002.53;5113896;28;20028;-79
2023/01/24 05:42:44;;;;;;;23.88;15.60;;;;;;;0.23;100.00;104001.66;5113178;28;20051;-78
2023/01/24 05:45:10;;;;;;;24.45;16.13;;;;;;;0.23;100.00;103999.06;5113961;28;20048;-79
2023/01/24 05:47:35;;;;;;;25.27;16.20;;;;;;;0.23;100.00;104001.66;5113383;28;20093;-78
2023/01/24 05:50:01;;;;;;;25.90;16.23;;;;;;;0.24;100.00;104006.00;5112083;28;20455;-79
2023/01/24 05:52:26;;;;;;;27.45;16.13;;;;;;;0.24;100.00;104012.16;5112629;28;20035;-79
2023/01/24 05:54:52;;;;;;;25.80;15.65;;;;;;;0.22;100.00;104008.63;5113427;28;20035;-78
2023/01/24 05:57:17;;;;;;;22.20;15.43;;;;;;;0.22;100.00;104006.00;5113284;28;20376;-79
2023/01/24 05:59:43;;;;;;;26.77;15.95;;;;;;;0.22;100.00;104005.16;5116604;28;20106;-78
2023/01/24 06:02:09;;;;;;;28.95;17.48;;;;;;;0.21;100.00;104001.66;5115851;28;20078;-78
2023/01/24 06:04:34;;;;;;;25.52;16.17;;;;;;;0.22;100.00;104005.16;5116956;28;20060;-78
2023/01/24 06:07:00;;;;;;;25.00;15.60;;;;;;;0.21;100.00;104006.91;5116487;28;20076;-78
2023/01/24 06:09:25;;;;;;;26.70;17.10;;;;;;;0.21;100.00;104012.13;5116933;28;20076;-79
2023/01/24 06:11:51;;;;;;;27.15;16.98;;;;;;;0.22;100.00;104010.38;5117164;28;20031;-80
2023/01/24 06:14:17;;;;;;;26.95;16.48;;;;;;;0.21;100.00;104004.28;5115553;28;20043;-80
2023/01/24 06:16:44;;;;;;;30.13;17.13;;;;;;;0.20;100.00;104002.53;5116902;28;20083;-79
2023/01/24 06:19:11;;;;;;;30.23;16.95;;;;;;;0.21;100.00;104011.25;5115760;28;20035;-80
2023/01/24 06:21:44;;;;;;;26.92;17.00;;;;;;;0.20;100.00;104007.75;5116799;28;20459;-80
2023/01/24 06:24:14;;;;;;;27.60;16.98;;;;;;;0.19;100.00;104011.25;5116524;28;20027;-83
2023/01/24 06:26:40;;;;;;;25.58;16.38;;;;;;;0.19;100.00;104007.75;5116993;28;20472;-80
2023/01/24 06:29:08;;;;;;;29.42;16.40;;;;;;;0.20;100.00;104020.00;5116695;28;20100;-82
2023/01/24 06:31:43;;;;;;;25.40;17.52;;;;;;;0.20;100.00;104018.25;5115813;28;20047;-83
2023/01/24 06:34:45;;;;;;;26.52;17.08;;;;;;;0.20;100.00;104020.84;5116999;28;20110;-77
2023/01/24 06:37:14;;;;;;;;;;;;;;;0.21;100.00;104017.38;5117173;27;20039;-79
2023/01/24 06:39:49;;;;;;;26.95;16.27;;;;;;;0.19;100.00;104021.72;5115606;28;19908;-81
2023/01/24 06:42:16;;;;;;;24.80;16.42;;;;;;;0.19;100.00;104032.19;5115534;28;20027;-76
2023/01/24 06:44:41;;;;;;;25.15;16.15;;;;;;;0.18;100.00;104030.47;5115246;28;20384;-77
2023/01/24 06:47:10;;;;;;;28.45;17.25;;;;;;;0.18;100.00;104025.22;5114901;28;20028;-77
2023/01/24 06:49:36;;;;;;;28.88;17.25;;;;;;;0.16;100.00;104030.47;5115657;28;20028;-79
2023/01/24 06:52:01;;;;;;;25.83;17.15;;;;;;;0.17;100.00;104032.19;5115469;28;20437;-77
2023/01/24 06:54:27;;;;;;;26.00;16.25;;;;;;;0.16;100.00;104025.22;5115752;28;20035;-77
2023/01/24 06:56:52;;;;;;;29.80;17.77;;;;;;;0.15;100.00;104033.03;5115607;28;20391;-83
2023/01/24 06:59:19;;;;;;;26.02;16.75;;;;;;;0.15;100.00;104023.47;5115670;28;20425;-77
2023/01/24 07:01:45;;;;;;;25.20;15.60;;;;;;;0.16;100.00;104032.19;5113730;28;20038;-78
2023/01/24 07:04:10;;;;;;;27.50;16.42;;;;;;;0.15;100.00;104025.19;5116419;28;20543;-78
2023/01/24 07:06:35;;;;;;;29.55;17.20;;;;;;;0.15;100.00;104025.19;5125727;28;20040;-80
2023/01/24 07:09:01;;;;;;;26.58;16.33;;;;;;;0.14;100.00;104032.16;5116296;28;20429;-78
2023/01/24 07:11:26;;;;;;;25.33;15.77;;;;;;;0.11;100.00;104032.16;5114393;28;20031;-78
2023/01/24 07:13:51;;;;;;;29.70;15.40;;;;;;;0.12;100.00;104036.53;5115214;28;20514;-79
2023/01/24 07:16:17;;;;;;;25.90;15.63;;;;;;;0.10;100.00;104038.25;5115530;27;20063;-79
2023/01/24 07:18:43;;;;;;;27.58;15.63;;;;;;;0.10;100.00;104043.50;5115228;28;20026;-79
2023/01/24 07:21:09;;;;;;;26.83;16.15;;;;;;;0.10;100.00;104042.63;5114019;28;20042;-79
2023/01/24 07:23:35;;;;;;;26.70;15.63;;;;;;;0.09;100.00;104046.09;5114395;28;20127;-80
2023/01/24 07:26:02;;;;;;;25.73;15.80;;;;;;;0.09;100.00;104046.09;5115217;28;20024;-81
2023/01/24 07:28:27;;;;;;;25.02;14.93;;;;;;;0.09;100.00;104043.50;5097085;28;20428;-80
2023/01/24 07:30:55;;;;;;;24.88;15.88;;;;;;;0.07;100.00;104047.84;5113963;28;20074;-81
2023/01/24 07:33:21;;;;;;;27.70;16.40;;;;;;;0.07;100.00;104056.56;5113697;28;20023;-79
2023/01/24 07:35:47;;;;;;;27.65;15.90;;;;;;;0.06;100.00;104048.72;5115091;28;20137;-81
2023/01/24 07:38:12;;;;;;;27.63;16.55;;;;;;;0.04;100.00;104038.22;5113910;28;20541;-80
2023/01/24 07:40:38;;;;;;;26.02;16.55;;;;;;;0.05;100.00;104049.59;5113299;28;20059;-81
2023/01/24 07:43:04;;;;;;;25.48;15.43;;;;;;;0.04;100.00;104055.69;5113656;28;20390;-81
2023/01/24 07:45:31;;;;;;;29.25;15.98;;;;;;;0.03;100.00;104056.56;5114706;28;20394;-81
2023/01/24 07:47:58;;;;;;;29.30;16.23;;;;;;;0.05;100.00;104065.31;5115451;28;20027;-80
2023/01/24 07:50:27;;;;;;;24.33;16.15;;;;;;;0.04;100.00;104061.81;5114604;28;20072;-80
2023/01/24 07:52:53;;;;;;;26.50;16.35;;;;;;;0.04;100.00;104072.28;5114846;28;20032;-80
2023/01/24 07:55:21;;;;;;;26.50;16.50;;;;;;;0.04;100.00;104067.03;5114914;28;20475;-81
2023/01/24 07:57:47;;;;;;;25.23;15.95;;;;;;;0.03;100.00;104067.94;5115256;28;20132;-81
2023/01/24 08:00:13;;;;;;;28.20;15.57;;;;;;;0.06;100.00;104075.78;5116634;28;20110;-81
2023/01/24 08:02:39;;;;;;;28.58;16.35;;;;;;;0.05;100.00;104063.56;5116088;28;20036;-82
2023/01/24 08:05:06;;;;;;;27.75;16.13;;;;;;;0.07;100.00;104071.41;5116040;28;20046;-82
2023/01/24 08:07:50;;;;;;;;;;;;;;;;;;;;;
2023/01/24 08:10:21;;;;;;;29.00;17.13;;;;;;;0.05;100.00;104074.03;5117338;28;20135;-80
2023/01/24 08:12:49;;;;;;;26.52;16.80;;;;;;;0.07;100.00;104076.66;5121103;28;20031;-82
2023/01/24 08:15:14;;;;;;;27.90;17.00;;;;;;;0.08;100.00;104083.66;5119520;28;20519;-81
2023/01/24 08:17:40;;;;;;;27.02;16.75;;;;;;;0.09;100.00;104081.03;5115955;28;20070;-79
2023/01/24 08:20:06;;;;;;;27.98;16.75;;;;;;;0.09;100.00;104085.38;5115872;28;20036;-81
2023/01/24 08:22:31;;;;;;;27.55;16.80;;;;;;;0.12;100.00;104081.06;5119206;28;20032;-81
2023/01/24 08:24:57;;;;;;;27.65;16.55;;;;;;;0.12;100.00;104081.06;5120587;28;20078;-80
2023/01/24 08:27:22;;;;;;;28.35;17.27;;;;;;;0.15;100.00;104086.31;5120931;28;20360;-81
2023/01/24 08:29:48;;;;;;;27.17;17.13;;;;;;;0.17;100.00;104087.19;5096120;28;20042;-80
2023/01/24 08:32:13;;;;;;;31.65;18.33;;;;;;;0.18;100.00;104088.09;5115072;27;20031;-80
2023/01/24 08:34:38;;;;;;;27.42;17.73;;;;;;;0.21;100.00;104092.44;5114607;28;20028;-80
2023/01/24 08:37:04;;;;;;;35.28;21.08;;;;;;;0.22;100.00;104092.44;5119448;28;20471;-83
2023/01/24 08:39:29;;;;;;;32.92;19.73;;;;;;;0.25;100.00;104088.97;5102767;28;20035;-79
2023/01/24 08:41:55;;;;;;;29.17;18.88;;;;;;;0.25;100.00;104094.22;5114983;28;20126;-78
2023/01/24 08:44:20;;;;;;;29.70;18.40;;;;;;;0.28;100.00;104096.84;5114738;28;20035;-76
2023/01/24 08:46:45;;;;;;;32.17;19.10;;;;;;;0.27;100.00;104101.22;5113737;28;20456;-76
2023/01/24 08:49:11;;;;;;;30.92;18.85;;;;;;;0.30;100.00;104103.84;5095599;28;20045;-76
2023/01/24 08:51:37;;;;;;;33.25;18.60;;;;;;;0.31;100.00;104105.59;5113839;28;20074;-77
2023/01/24 08:54:05;;;;;;;27.90;18.40;;;;;;;0.32;100.00;104098.63;5113776;28;20107;-77
2023/01/24 08:56:30;;;;;;;30.25;19.17;;;;;;;0.35;100.00;104101.25;5113947;28;20031;-76
2023/01/24 08:58:56;;;;;;;32.00;18.77;;;;;;;0.34;100.00;104102.09;5114170;28;20419;-76
2023/01/24 09:01:21;;;;;;;30.55;19.00;;;;;;;0.36;100.00;104108.25;5113486;28;20391;-76
2023/01/24 09:03:48;;;;;;;32.28;18.60;;;;;;;0.38;100.00;104113.50;5112290;28;20383;-76
2023/01/24 09:06:14;;;;;;;28.23;18.55;;;;;;;0.38;100.00;104116.13;5096407;28;20032;-76
2023/01/24 09:08:39;;;;;;;35.17;19.65;;;;;;;0.38;100.00;104122.22;5113931;28;20031;-76
2023/01/24 09:11:05;;;;;;;30.38;18.88;;;;;;;0.39;100.00;104113.50;5112318;28;20142;-77
2023/01/24 09:13:31;;;;;;;29.85;18.77;;;;;;;0.40;100.00;104110.00;5113273;28;20074;-76
2023/01/24 09:15:58;;;;;;;32.30;18.48;;;;;;;0.43;100.00;104114.38;5113562;28;20036;-76
2023/01/24 09:18:24;;;;;;;31.25;18.90;;;;;;;0.45;100.00;104116.16;5113555;28;20031;-76
2023/01/24 09:20:49;;;;;;;29.73;18.42;;;;;;;0.46;100.00;104125.75;5112088;28;20177;-75
2023/01/24 09:23:15;;;;;;;33.85;18.65;;;;;;;0.46;100.00;104123.16;5112152;28;20443;-76
2023/01/24 09:25:41;;;;;;;29.50;18.73;;;;;;;0.46;100.00;104124.88;5113119;28;20541;-76
2023/01/24 09:28:07;;;;;;;31.67;19.00;;;;;;;0.45;100.00;104125.72;5113355;28;20386;-79
2023/01/24 09:30:33;;;;;;;29.52;17.98;;;;;;;0.44;100.00;104129.25;5114282;28;20092;-77
2023/01/24 09:33:02;;;;;;;29.13;17.20;;;;;;;0.43;100.00;104127.47;5113922;28;20079;-78
2023/01/24 09:35:28;;;;;;;33.58;18.25;;;;;;;0.43;100.00;104132.72;5117708;28;20047;-77
2023/01/24 09:37:53;;;;;;;28.85;18.67;;;;;;;0.44;100.00;104137.09;5117527;28;20120;-77
2023/01/24 09:40:29;;;;;;;29.80;17.48;;;;;;;0.40;100.00;104128.34;5117260;28;20040;-77
2023/01/24 09:43:11;;;;;;;28.67;17.60;;;;;;;0.41;100.00;104131.84;5118060;27;20042;-77
2023/01/24 09:45:40;;;;;;;;;;;;;;;0.40;100.00;104138.81;5117352;28;20031;-77
2023/01/24 09:48:12;;;;;;;28.65;16.85;;;;;;;0.42;100.00;104141.44;5117567;28;19911;-78
2023/01/24 09:50:41;;;;;;;28.40;17.80;;;;;;;0.39;100.00;104138.81;5117325;28;20027;-78
2023/01/24 09:53:16;;;;;;;28.67;17.02;;;;;;;0.40;100.00;104136.19;5118538;28;20106;-77
2023/01/24 09:55:42;;;;;;;29.48;17.23;;;;;;;0.43;100.00;104151.91;5117709;28;20059;-78
2023/01/24 09:58:26;;;;;;;30.10;17.85;;;;;;;0.46;100.00;104146.72;5117626;28;20084;-80
2023/01/24 10:00:52;;;;;;;27.02;16.88;;;;;;;0.44;100.00;104143.22;5117300;28;20118;-77
2023/01/24 10:03:20;;;;;;;32.58;18.55;;;;;;;0.45;100.00;104141.44;5115916;28;20035;-77
2023/01/24 10:05:54;;;;;;;29.80;17.38;;;;;;;0.48;100.00;104144.97;5117687;28;20039;-78
2023/01/24 10:08:29;;;;;;;28.33;16.98;;;;;;;0.50;100.00;104145.00;5117044;28;20538;-78
2023/01/24 10:11:06;;;;;;;29.30;16.73;;;;;;;0.49;100.00;104145.84;5117067;28;20382;-78
2023/01/24 10:14:06;;;;;;;26.23;15.77;;;;;;;0.52;100.00;104148.47;5116842;28;20031;-77
2023/01/24 10:16:37;;;;;;;24.80;15.73;;;;;;;0.49;100.00;104143.22;5116952;28;20023;-79
2023/01/24 10:19:36;;;;;;;26.23;16.58;;;;;;;0.46;100.00;104145.84;5116525;28;20031;-77
2023/01/24 10:22:43;;;;;;;26.77;16.63;;;;;;;0.52;100.00;104148.47;5116915;27;20467;-78
2023/01/24 10:25:18;;;;;;;23.42;15.07;;;;;;;0.55;100.00;104140.63;5105678;28;20045;-77
2023/01/24 10:27:47;;;;;;;27.33;15.82;;;;;;;0.53;100.00;104138.00;5117245;28;20027;-77
2023/01/24 10:30:19;;;;;;;25.45;15.57;;;;;;;0.56;100.00;104139.78;5116411;28;20433;-77
2023/01/24 10:32:49;;;;;;;23.23;14.60;;;;;;;0.55;100.00;104135.38;5117059;28;20428;-78
2023/01/24 10:35:28;;;;;;;23.30;14.98;;;;;;;0.59;100.00;104145.03;5116790;28;20047;-77
2023/01/24 10:37:58;;;;;;;25.27;15.80;;;;;;;0.60;100.00;104141.53;5117090;27;20024;-78
2023/01/24 10:40:27;;;;;;;22.17;14.32;;;;;;;0.62;100.00;104137.16;5117598;28;20056;-78
2023/01/24 10:42:53;;;;;;;31.25;16.60;;;;;;;0.64;100.00;104138.06;5117753;28;20027;-80
2023/01/24 10:45:33;;;;;;;22.05;15.05;;;;;;;0.66;100.00;104130.22;5097207;28;20049;-77
2023/01/24 10:48:06;;;;;;;26.88;15.40;;;;;;;0.65;100.00;104134.56;5116714;28;20032;-78
2023/01/24 10:50:35;;;;;;;27.38;15.68;;;;;;;0.68;100.00;104134.56;5116580;28;20031;-77
2023/01/24 10:53:26;;;;;;;28.02;16.02;;;;;;;0.73;100.00;104126.72;5114907;28;20024;-79
2023/01/24 10:56:03;;;;;;;26.08;15.43;;;;;;;0.75;100.00;104121.47;5117098;28;20023;-79
2023/01/24 10:58:36;;;;;;;22.88;15.27;;;;;;;0.76;100.00;104128.47;5117013;27;20039;-79
2023/01/24 11:01:06;;;;;;;25.40;15.50;;;;;;;0.75;100.00;104118.84;5115921;28;20028;-77
2023/01/24 11:03:38;;;;;;;26.25;16.15;;;;;;;0.79;100.00;104118.91;5114744;28;20554;-78
2023/01/24 11:06:03;;;;;;;27.70;15.25;;;;;;;0.80;100.00;104117.16;5098226;28;20376;-78
2023/01/24 11:08:35;;;;;;;25.13;15.27;;;;;;;0.82;100.00;104110.16;5116008;28;20061;-81
2023/01/24 11:11:01;;;;;;;26.65;16.15;;;;;;;0.82;100.00;104111.03;5114598;28;20031;-78
2023/01/24 11:13:39;;;;;;;24.70;16.33;;;;;;;0.82;100.00;104111.03;5115637;28;20097;-79
2023/01/24 11:16:16;;;;;;;26.67;16.52;;;;;;;0.84;100.00;104113.66;5116269;27;20177;-79
2023/01/24 11:18:56;;;;;;;24.85;15.98;;;;;;;0.77;100.00;104109.28;5116004;28;20027;-77
2023/01/24 11:21:21;;;;;;;24.88;15.68;;;;;;;0.80;100.00;104107.53;5115853;28;20122;-79
2023/01/24 11:24:04;;;;;;;28.88;16.85;;;;;;;0.82;100.00;104107.53;5115213;28;20067;-77
2023/01/24 11:26:33;;;;;;;23.95;16.05;;;;;;;0.82;100.00;104102.28;5116961;28;20102;-78
2023/01/24 11:29:04;;;;;;;26.17;15.50;;;;;;;0.83;100.00;104104.03;5114385;28;20107;-78
2023/01/24 11:31:36;;;;;;;25.30;16.33;;;;;;;0.83;100.00;104097.03;5116342;28;20072;-78
2023/01/24 11:34:47;;;;;;;24.45;16.40;;;;;;;0.86;100.00;104091.81;5114345;28;20023;-77
2023/01/24 11:37:49;;;;;;;26.38;16.63;;;;;;;0.89;100.00;104085.69;5083702;28;20105;-77
2023/01/24 11:40:40;;;;;;;26.02;16.50;;;;;;;0.91;100.00;104085.69;5114828;28;20036;-77
2023/01/24 11:43:17;;;;;;;26.65;16.42;;;;;;;0.91;100.00;104089.22;5115748;28;20031;-78
2023/01/24 11:45:55;;;;;;;27.65;17.23;;;;;;;0.92;100.00;104084.84;5114055;28;20039;-77
2023/01/24 11:48:38;;;;;;;29.25;17.20;;;;;;;0.94;100.00;104085.72;5114730;28;20028;-77
2023/01/24 11:51:09;;;;;;;29.00;18.13;;;;;;;0.93;100.00;104084.84;5115187;28;20077;-77
2023/01/24 11:54:13;;;;;;;27.60;17.13;;;;;;;0.95;100.00;104085.72;5114724;28;20027;-77